Time;durP1;ratioP1;P1;durP2;ratioP2;P2;SDS_P1;SDS_P2;PMS_P1;PMS_P2;Temp;Humidity;BMP_temperature;BMP_pressure;BME280_temperature;BME280_humidity;BME280_pressure;Samples;Min_cycle;Max_cycle;Signal;HPM_P1;HPM_P2
2022/10/21 00:02:03;;;;;;;8.63;4.82;;;21.40;73.20;;;;;;4978079;27;86949;-84
2022/10/21 00:04:30;;;;;;;6.75;4.30;;;21.40;73.20;;;;;;4976848;27;85753;-83
2022/10/21 00:06:56;;;;;;;7.30;4.68;;;21.40;73.30;;;;;;4979146;28;86242;-84
2022/10/21 00:09:21;;;;;;;6.40;4.53;;;21.30;73.00;;;;;;4977699;27;85820;-84
2022/10/21 00:11:47;;;;;;;8.82;4.80;;;21.40;73.30;;;;;;4978314;27;86683;-84
2022/10/21 00:14:12;;;;;;;9.00;4.22;;;21.40;73.30;;;;;;4977163;28;86150;-84
2022/10/21 00:16:38;;;;;;;6.97;4.40;;;21.40;73.30;;;;;;4978582;27;86301;-84
2022/10/21 00:19:04;;;;;;;7.22;4.43;;;21.30;73.20;;;;;;4978870;28;87418;-84
2022/10/21 00:21:29;;;;;;;6.40;4.43;;;21.40;73.20;;;;;;4978104;28;86884;-84
2022/10/21 00:23:55;;;;;;;8.40;4.88;;;21.30;73.20;;;;;;4992431;27;85702;-84
2022/10/21 00:26:21;;;;;;;6.32;4.47;;;21.30;73.40;;;;;;4985292;28;85999;-84
2022/10/21 00:28:46;;;;;;;7.95;4.50;;;21.40;73.30;;;;;;4977719;27;86786;-84
2022/10/21 00:31:14;;;;;;;8.07;4.53;;;21.30;73.10;;;;;;4977181;28;89505;-84
2022/10/21 00:33:41;;;;;;;6.82;4.82;;;21.30;73.20;;;;;;4977663;27;86083;-84
2022/10/21 00:36:13;;;;;;;7.40;4.43;;;21.30;73.20;;;;;;4968131;28;87620;-84
2022/10/21 00:38:39;;;;;;;7.13;4.55;;;21.30;73.20;;;;;;4978112;28;87488;-84
2022/10/21 00:41:04;;;;;;;6.72;4.32;;;21.30;73.00;;;;;;4976079;28;88892;-84
2022/10/21 00:43:30;;;;;;;7.53;4.35;;;21.30;73.20;;;;;;4975546;28;85865;-84
2022/10/21 00:46:10;;;;;;;6.80;4.07;;;21.20;73.10;;;;;;4978153;28;86291;-84
2022/10/21 00:48:40;;;;;;;7.53;4.63;;;21.30;73.30;;;;;;4976625;28;87148;-84
2022/10/21 00:51:10;;;;;;;6.05;4.20;;;21.30;73.20;;;;;;4977638;27;87055;-84
2022/10/21 00:53:39;;;;;;;6.70;4.75;;;21.20;73.20;;;;;;4978030;28;85676;-84
2022/10/21 00:56:11;;;;;;;6.85;4.38;;;21.20;73.00;;;;;;4977611;28;86026;-83
2022/10/21 00:58:36;;;;;;;8.18;4.85;;;21.20;73.20;;;;;;4976330;28;87645;-84
2022/10/21 01:01:05;;;;;;;7.00;4.18;;;21.20;73.20;;;;;;4978487;28;85988;-84
2022/10/21 01:03:32;;;;;;;9.18;4.45;;;21.20;73.30;;;;;;4977146;27;85896;-84
2022/10/21 01:06:01;;;;;;;6.82;4.53;;;21.20;73.10;;;;;;4977275;27;85737;-84
2022/10/21 01:08:28;;;;;;;7.05;3.90;;;21.20;73.10;;;;;;4977259;28;86601;-84
2022/10/21 01:10:53;;;;;;;5.53;4.28;;;21.20;73.00;;;;;;4976568;27;87130;-84
2022/10/21 01:13:54;;;;;;;5.95;4.20;;;21.20;73.00;;;;;;4976819;28;86214;-84
2022/10/21 01:16:41;;;;;;;8.00;4.50;;;21.20;72.90;;;;;;4937655;28;88800;-84
2022/10/21 01:19:44;;;;;;;5.22;3.72;;;21.20;73.00;;;;;;4955855;28;85818;-84
2022/10/21 01:22:28;;;;;;;6.30;3.95;;;21.20;72.90;;;;;;4924676;28;91020;-84
2022/10/21 01:25:16;;;;;;;5.57;4.22;;;21.20;72.90;;;;;;4926332;28;87536;-84
2022/10/21 01:28:25;;;;;;;6.60;4.20;;;21.20;73.10;;;;;;4924601;28;85831;-84
2022/10/21 01:30:53;;;;;;;7.22;4.32;;;21.20;73.00;;;;;;4926937;28;91700;-84
2022/10/21 01:33:26;;;;;;;5.75;4.20;;;21.20;73.00;;;;;;4924950;28;86320;-84
2022/10/21 01:36:02;;;;;;;5.30;4.03;;;21.20;73.10;;;;;;4925541;28;86203;-84
2022/10/21 01:38:39;;;;;;;5.82;4.28;;;21.20;73.10;;;;;;4924988;28;85755;-84
2022/10/21 01:41:28;;;;;;;5.43;3.97;;;21.20;72.90;;;;;;4924666;28;87420;-84
2022/10/21 01:44:04;;;;;;;7.57;4.30;;;21.10;72.90;;;;;;4925152;28;86466;-83
2022/10/21 01:46:41;;;;;;;5.40;4.00;;;21.20;73.00;;;;;;4924119;28;86071;-85
2022/10/21 01:49:16;;;;;;;5.60;3.90;;;21.10;73.00;;;;;;4925321;28;86607;-84
2022/10/21 01:51:42;;;;;;;4.88;3.40;;;21.10;73.20;;;;;;4924871;28;87663;-84
2022/10/21 01:54:14;;;;;;;5.75;4.07;;;21.10;72.90;;;;;;4950728;28;86506;-84
2022/10/21 01:56:42;;;;;;;8.43;4.00;;;21.10;72.90;;;;;;4954364;28;86423;-84
2022/10/21 01:59:11;;;;;;;5.18;3.85;;;21.10;73.10;;;;;;4966019;28;86288;-84
2022/10/21 02:01:38;;;;;;;6.13;4.03;;;21.10;72.80;;;;;;4977531;27;87404;-84
2022/10/21 02:04:07;;;;;;;5.07;3.63;;;21.10;72.80;;;;;;4980939;28;86121;-84
2022/10/21 02:06:33;;;;;;;6.30;4.18;;;21.10;72.80;;;;;;4980012;28;85747;-84
2022/10/21 02:08:59;;;;;;;6.35;4.20;;;21.10;72.90;;;;;;4994056;27;86809;-84
2022/10/21 02:11:26;;;;;;;5.45;3.72;;;21.10;72.80;;;;;;4979825;28;87770;-84
2022/10/21 02:14:07;;;;;;;5.30;3.65;;;21.10;72.80;;;;;;4979449;27;86614;-84
2022/10/21 02:16:37;;;;;;;5.47;3.65;;;21.10;72.90;;;;;;4979699;27;86162;-84
2022/10/21 02:19:10;;;;;;;6.00;4.03;;;21.10;72.80;;;;;;4980089;28;85771;-84
2022/10/21 02:21:36;;;;;;;6.57;4.00;;;21.10;72.80;;;;;;4979050;27;87525;-84
2022/10/21 02:24:34;;;;;;;5.93;4.18;;;21.10;72.80;;;;;;4994329;27;86165;-84
2022/10/21 02:27:00;;;;;;;6.35;4.20;;;21.10;72.80;;;;;;4937680;28;86216;-84
2022/10/21 02:29:32;;;;;;;5.40;4.03;;;21.10;72.90;;;;;;4937252;28;86159;-84
2022/10/21 02:32:22;;;;;;;5.07;3.58;;;21.10;72.80;;;;;;4937398;28;87502;-84
2022/10/21 02:35:01;;;;;;;6.18;3.92;;;21.10;72.70;;;;;;4937193;28;86832;-84
2022/10/21 02:37:42;;;;;;;4.32;3.60;;;21.10;72.70;;;;;;4938003;28;85764;-84
2022/10/21 02:40:12;;;;;;;6.90;4.00;;;21.10;72.80;;;;;;4937012;28;86003;-84
2022/10/21 02:42:43;;;;;;;6.15;3.78;;;21.00;72.80;;;;;;4937784;28;87299;-84
2022/10/21 02:45:09;;;;;;;5.55;3.90;;;21.00;72.70;;;;;;4937795;28;86168;-84
2022/10/21 02:47:38;;;;;;;5.75;3.80;;;21.10;72.80;;;;;;4937627;28;86302;-84
2022/10/21 02:50:04;;;;;;;6.68;4.22;;;21.00;72.80;;;;;;4937236;28;86011;-84
2022/10/21 02:52:30;;;;;;;4.50;3.13;;;21.00;72.80;;;;;;4937067;28;86454;-84
2022/10/21 02:54:55;;;;;;;5.43;3.35;;;21.00;72.90;;;;;;4937739;28;88130;-84
2022/10/21 02:57:21;;;;;;;5.22;3.55;;;21.00;72.90;;;;;;4936672;28;85876;-84
2022/10/21 02:59:46;;;;;;;7.50;4.30;;;21.00;73.60;;;;;;4937527;28;86245;-84
2022/10/21 03:02:12;;;;;;;5.20;3.78;;;21.00;72.80;;;;;;4937300;28;86207;-84
2022/10/21 03:04:37;;;;;;;6.70;4.07;;;21.00;72.70;;;;;;4970350;27;86360;-84
2022/10/21 03:07:03;;;;;;;4.95;3.85;;;21.00;72.80;;;;;;4979777;28;85551;-84
2022/10/21 03:09:29;;;;;;;5.07;3.63;;;21.00;72.80;;;;;;4978592;27;86458;-84
2022/10/21 03:11:54;;;;;;;4.68;3.58;;;21.00;72.70;;;;;;4978210;27;86839;-83
2022/10/21 03:14:20;;;;;;;4.50;3.58;;;21.00;72.70;;;;;;4977892;28;86816;-84
2022/10/21 03:16:45;;;;;;;4.53;3.30;;;21.00;72.80;;;;;;4978123;27;86313;-84
2022/10/21 03:19:11;;;;;;;6.00;3.83;;;21.00;72.70;;;;;;4979052;28;85965;-84
2022/10/21 03:21:36;;;;;;;5.18;3.30;;;21.00;72.80;;;;;;4978409;27;87951;-84
2022/10/21 03:24:02;;;;;;;5.68;3.72;;;21.00;72.60;;;;;;4977756;27;86297;-84
2022/10/21 03:26:28;;;;;;;6.05;3.92;;;21.00;72.80;;;;;;4978211;28;85756;-84
2022/10/21 03:28:56;;;;;;;4.90;3.88;;;21.00;72.70;;;;;;4978276;27;86091;-84
2022/10/21 03:31:22;;;;;;;4.35;3.38;;;21.00;72.60;;;;;;4978190;28;86267;-83
2022/10/21 03:33:47;;;;;;;5.43;3.65;;;21.00;72.60;;;;;;4978921;28;86357;-84
2022/10/21 03:36:13;;;;;;;4.95;3.60;;;21.00;72.70;;;;;;4977446;27;85648;-84
2022/10/21 03:38:38;;;;;;;5.65;3.67;;;21.00;72.70;;;;;;4977780;27;86033;-84
2022/10/21 03:41:04;;;;;;;4.32;3.17;;;20.90;72.70;;;;;;4978081;27;87514;-83
2022/10/21 03:43:30;;;;;;;5.50;3.40;;;21.00;72.80;;;;;;4977730;27;86286;-83
2022/10/21 03:45:55;;;;;;;4.93;3.45;;;20.90;72.70;;;;;;4978877;28;86193;-84
2022/10/21 03:48:21;;;;;;;5.45;3.42;;;20.90;72.80;;;;;;4977932;27;85831;-84
2022/10/21 03:50:46;;;;;;;5.40;3.60;;;20.90;72.60;;;;;;4977500;28;95145;-84
2022/10/21 03:53:12;;;;;;;5.82;3.85;;;20.90;72.50;;;;;;4976762;28;88500;-84
2022/10/21 03:55:37;;;;;;;4.20;3.40;;;20.90;72.50;;;;;;4978246;28;86225;-85
2022/10/21 03:58:03;;;;;;;4.47;3.40;;;20.90;72.50;;;;;;4978761;28;85735;-85
2022/10/21 04:00:29;;;;;;;4.88;3.20;;;20.90;72.60;;;;;;4976966;28;86932;-85
2022/10/21 04:02:54;;;;;;;4.72;3.15;;;20.90;72.60;;;;;;5009017;27;87025;-85
2022/10/21 04:05:20;;;;;;;4.95;3.30;;;20.90;72.70;;;;;;4977271;28;86107;-85
2022/10/21 04:07:45;;;;;;;3.97;3.03;;;20.90;72.70;;;;;;4977501;27;85858;-85
2022/10/21 04:10:11;;;;;;;5.85;3.67;;;20.90;72.60;;;;;;4978546;28;87139;-84
2022/10/21 04:12:37;;;;;;;6.30;3.72;;;20.90;72.90;;;;;;4977817;27;86448;-85
2022/10/21 04:15:04;;;;;;;4.38;3.35;;;20.90;72.70;;;;;;4977241;27;86027;-85
2022/10/21 04:17:30;;;;;;;4.43;3.28;;;20.90;72.80;;;;;;4976949;27;85885;-85
2022/10/21 04:19:55;;;;;;;6.93;3.67;;;20.90;72.80;;;;;;4977932;28;87452;-84
2022/10/21 04:22:23;;;;;;;4.32;3.03;;;20.90;72.60;;;;;;5009625;28;88545;-85
2022/10/21 04:24:49;;;;;;;5.07;3.90;;;20.90;72.70;;;;;;4976682;28;86694;-85
2022/10/21 04:27:14;;;;;;;5.78;3.38;;;20.90;72.70;;;;;;4977099;27;85830;-85
2022/10/21 04:29:40;;;;;;;4.88;3.25;;;20.90;72.80;;;;;;4976534;27;86867;-85
2022/10/21 04:32:05;;;;;;;5.03;3.00;;;20.80;72.70;;;;;;4977395;28;86517;-85
2022/10/21 04:34:31;;;;;;;5.60;3.25;;;20.90;72.90;;;;;;4977274;28;86142;-84
2022/10/21 04:36:57;;;;;;;4.85;3.40;;;20.90;72.70;;;;;;4978376;28;86223;-86
2022/10/21 04:39:22;;;;;;;4.78;3.38;;;20.90;72.60;;;;;;4977849;27;87933;-85
2022/10/21 04:41:49;;;;;;;4.72;3.55;;;20.90;72.30;;;;;;4977234;27;86734;-84
2022/10/21 04:44:15;;;;;;;3.75;2.88;;;20.90;72.60;;;;;;4977271;28;86111;-85
2022/10/21 04:46:40;;;;;;;6.80;3.00;;;20.90;72.70;;;;;;4977151;27;86431;-86
2022/10/21 04:49:06;;;;;;;4.85;2.53;;;20.90;72.80;;;;;;4974139;28;87331;-84
2022/10/21 04:51:31;;;;;;;6.47;3.15;;;21.00;70.90;;;;;;4976004;27;89210;-83
2022/10/21 04:53:57;;;;;;;5.85;3.50;;;21.00;71.70;;;;;;4977097;28;86344;-83
2022/10/21 04:56:23;;;;;;;6.22;3.60;;;21.00;72.30;;;;;;4977071;28;85814;-83
2022/10/21 04:58:48;;;;;;;5.18;3.53;;;20.90;72.60;;;;;;4976275;28;87525;-84
2022/10/21 05:01:14;;;;;;;3.95;3.10;;;21.00;72.70;;;;;;4978161;28;86818;-85
2022/10/21 05:03:40;;;;;;;8.15;3.10;;;21.00;72.50;;;;;;4977745;28;86346;-86
2022/10/21 05:06:05;;;;;;;4.97;2.78;;;21.00;71.70;;;;;;4977530;27;86368;-86
2022/10/21 05:08:31;;;;;;;4.53;3.05;;;21.00;71.10;;;;;;4977429;28;86975;-85
2022/10/21 05:11:00;;;;;;;4.40;2.92;;;21.00;70.90;;;;;;4976604;27;86285;-85
2022/10/21 05:13:29;;;;;;;5.65;3.30;;;21.10;71.30;;;;;;4984551;28;86306;-86
2022/10/21 05:15:59;;;;;;;5.85;3.28;;;21.00;72.20;;;;;;4978194;28;86077;-86
2022/10/21 05:18:25;;;;;;;4.95;3.03;;;20.90;72.40;;;;;;4976405;28;86945;-86
2022/10/21 05:20:52;;;;;;;5.20;3.17;;;20.90;72.60;;;;;;4976881;28;85907;-86
2022/10/21 05:23:18;;;;;;;4.13;3.30;;;20.90;72.70;;;;;;4977063;28;86462;-86
2022/10/21 05:25:45;;;;;;;4.30;3.35;;;20.90;72.80;;;;;;4976705;28;86268;-87
2022/10/21 05:28:10;;;;;;;5.38;3.17;;;20.90;72.80;;;;;;4977801;28;86169;-86
2022/10/21 05:30:36;;;;;;;5.13;3.40;;;20.80;72.70;;;;;;4976846;27;86188;-86
2022/10/21 05:33:02;;;;;;;5.45;3.50;;;20.90;72.80;;;;;;4976659;27;86856;-87
2022/10/21 05:35:27;;;;;;;4.32;2.83;;;20.90;72.90;;;;;;4991474;28;86236;-87
2022/10/21 05:37:53;;;;;;;5.25;2.95;;;20.80;72.90;;;;;;4979127;27;88849;-86
2022/10/21 05:40:19;;;;;;;3.63;2.83;;;20.80;72.90;;;;;;4980217;28;86761;-86
2022/10/21 05:42:44;;;;;;;4.93;3.38;;;20.80;72.90;;;;;;4980265;28;86203;-86
2022/10/21 05:45:10;;;;;;;4.30;2.92;;;20.80;73.00;;;;;;4980085;28;85763;-86
2022/10/21 05:47:37;;;;;;;4.85;3.10;;;20.80;72.80;;;;;;4979759;27;87275;-86
2022/10/21 05:50:03;;;;;;;5.63;3.58;;;20.80;72.80;;;;;;4980543;27;86585;-86
2022/10/21 05:52:28;;;;;;;5.25;3.28;;;20.80;72.80;;;;;;4980331;27;86937;-86
2022/10/21 05:54:54;;;;;;;4.00;2.80;;;20.80;72.90;;;;;;4980594;28;85822;-86
2022/10/21 05:57:19;;;;;;;5.15;3.35;;;20.80;72.90;;;;;;4980130;28;87205;-86
2022/10/21 05:59:45;;;;;;;6.38;3.15;;;20.80;73.20;;;;;;4978323;28;88655;-86
2022/10/21 06:02:10;;;;;;;3.67;2.95;;;20.80;73.10;;;;;;4979701;27;85944;-86
2022/10/21 06:04:36;;;;;;;5.20;3.35;;;20.80;73.10;;;;;;4980298;27;86282;-87
2022/10/21 06:07:02;;;;;;;4.45;3.20;;;20.80;73.00;;;;;;4980742;28;86936;-86
2022/10/21 06:09:27;;;;;;;5.40;3.15;;;20.80;73.00;;;;;;4980354;27;86775;-87
2022/10/21 06:11:53;;;;;;;4.47;3.10;;;20.70;72.90;;;;;;4979986;27;86330;-87
2022/10/21 06:14:19;;;;;;;4.60;3.10;;;20.70;72.80;;;;;;4979345;27;87102;-86
2022/10/21 06:16:44;;;;;;;4.28;2.88;;;20.70;72.70;;;;;;4979905;28;87567;-86
2022/10/21 06:19:10;;;;;;;4.85;2.78;;;20.70;72.70;;;;;;4980593;28;86475;-86
2022/10/21 06:21:36;;;;;;;4.60;3.20;;;20.70;72.60;;;;;;4979234;27;85750;-86
2022/10/21 06:24:01;;;;;;;4.43;2.70;;;20.70;72.80;;;;;;4995053;27;85770;-87
2022/10/21 06:26:27;;;;;;;5.20;3.00;;;20.70;72.80;;;;;;4985401;27;86969;-87
2022/10/21 06:28:52;;;;;;;4.13;2.97;;;20.70;72.80;;;;;;4979454;27;86452;-87
2022/10/21 06:31:20;;;;;;;5.20;2.83;;;20.70;72.90;;;;;;5013196;28;87099;-87
2022/10/21 06:33:46;;;;;;;4.93;2.78;;;20.80;72.50;;;;;;4979417;28;85569;-88
2022/10/21 06:36:12;;;;;;;7.60;2.85;;;20.90;72.00;;;;;;4979609;28;87663;-89
2022/10/21 06:38:38;;;;;;;6.07;2.70;;;21.00;71.60;;;;;;4984134;28;88723;-87
2022/10/21 06:41:10;;;;;;;4.30;2.95;;;20.90;71.60;;;;;;4977502;28;86713;-86
2022/10/21 06:43:36;;;;;;;6.68;3.35;;;20.90;71.80;;;;;;4979386;27;86150;-85
2022/10/21 06:46:05;;;;;;;6.53;3.63;;;20.90;72.10;;;;;;4980274;28;86476;-87
2022/10/21 06:48:32;;;;;;;14.30;4.93;;;20.90;72.00;;;;;;4978737;28;86897;-86
2022/10/21 06:51:00;;;;;;;13.68;5.90;;;20.90;71.80;;;;;;4979468;27;85882;-87
2022/10/21 06:53:27;;;;;;;12.07;5.43;;;21.00;71.90;;;;;;4977481;28;86335;-89
2022/10/21 06:56:05;;;;;;;21.15;6.50;;;21.00;71.70;;;;;;4977672;28;89352;-89
2022/10/21 06:58:30;;;;;;;18.48;5.55;;;21.00;71.70;;;;;;4979082;27;86503;-88
2022/10/21 07:00:57;;;;;;;13.75;5.78;;;20.90;72.10;;;;;;4980217;28;85983;-89
2022/10/21 07:03:23;;;;;;;18.33;6.15;;;20.90;72.50;;;;;;4979210;27;85839;-90
2022/10/21 07:05:49;;;;;;;16.05;6.70;;;20.80;72.60;;;;;;4980305;28;87065;-89
2022/10/21 07:08:15;;;;;;;19.30;6.22;;;20.80;72.80;;;;;;4978688;28;90337;-89
2022/10/21 07:10:43;;;;;;;24.40;7.22;;;20.80;73.10;;;;;;4980166;28;85962;-89
2022/10/21 07:13:10;;;;;;;19.20;6.80;;;20.80;73.20;;;;;;5012321;28;85979;-88
2022/10/21 07:15:36;;;;;;;20.85;6.97;;;20.80;73.40;;;;;;4979971;27;86130;-89
2022/10/21 07:18:01;;;;;;;20.15;6.63;;;20.70;73.20;;;;;;4979872;28;86749;-89
2022/10/21 07:20:27;;;;;;;20.83;6.68;;;20.80;73.40;;;;;;4986701;27;85825;-89
2022/10/21 07:22:52;;;;;;;23.55;7.28;;;20.70;73.40;;;;;;4994149;27;86315;-89
2022/10/21 07:25:23;;;;;;;25.35;7.05;;;20.70;73.40;;;;;;4981132;28;86882;-89
2022/10/21 07:27:50;;;;;;;18.98;6.13;;;20.70;73.40;;;;;;5011024;28;93578;-90
2022/10/21 07:30:16;;;;;;;23.80;6.97;;;20.70;73.70;;;;;;4979147;27;86160;-90
2022/10/21 07:32:42;;;;;;;19.83;7.72;;;20.70;73.50;;;;;;4992104;27;85883;-90
2022/10/21 07:35:07;;;;;;;16.10;6.00;;;20.70;73.50;;;;;;4983366;28;90317;-89
2022/10/21 07:37:33;;;;;;;20.75;6.22;;;20.90;73.40;;;;;;4977000;27;86574;-88
2022/10/21 07:39:59;;;;;;;20.73;6.88;;;20.90;73.20;;;;;;4977310;28;85787;-88
2022/10/21 07:42:27;;;;;;;22.10;6.93;;;20.90;73.10;;;;;;4992977;27;86478;-89
2022/10/21 07:44:58;;;;;;;20.40;7.18;;;20.80;73.30;;;;;;4977741;27;87569;-89
2022/10/21 07:47:24;;;;;;;23.27;6.47;;;20.80;74.10;;;;;;4976752;28;87644;-88
2022/10/21 07:49:50;;;;;;;18.45;7.05;;;20.80;73.40;;;;;;5009943;27;86506;-88
2022/10/21 07:52:16;;;;;;;21.15;7.28;;;20.80;73.60;;;;;;4977292;28;86309;-89
2022/10/21 07:54:41;;;;;;;19.92;7.03;;;20.80;73.60;;;;;;4977619;27;87058;-88
2022/10/21 07:57:07;;;;;;;16.58;6.68;;;20.70;73.70;;;;;;4978216;27;85746;-90
2022/10/21 07:59:32;;;;;;;19.08;7.05;;;20.70;73.80;;;;;;4977441;28;86460;-88
2022/10/21 08:01:58;;;;;;;15.18;6.45;;;20.70;73.70;;;;;;4978108;28;85721;-88
2022/10/21 08:04:28;;;;;;;16.60;6.53;;;20.80;73.50;;;;;;4978023;28;85847;-85
2022/10/21 08:07:04;;;;;;;13.63;5.32;;;20.80;73.30;;;;;;4978439;28;87408;-86
2022/10/21 08:09:29;;;;;;;19.48;5.15;;;20.80;72.00;;;;;;4976624;28;85713;-87
2022/10/21 08:11:55;;;;;;;14.18;5.07;;;20.70;70.70;;;;;;4977772;28;85717;-86
2022/10/21 08:14:21;;;;;;;15.15;4.32;;;20.70;70.50;;;;;;4977256;28;87343;-86
2022/10/21 08:16:51;;;;;;;9.80;3.88;;;20.70;70.30;;;;;;4969918;28;88322;-85
2022/10/21 08:19:20;;;;;;;10.43;4.20;;;20.70;70.10;;;;;;5003005;28;86046;-86
2022/10/21 08:21:45;;;;;;;9.20;4.07;;;20.70;70.30;;;;;;4977641;27;85855;-86
2022/10/21 08:24:11;;;;;;;11.23;3.97;;;20.70;69.70;;;;;;4996015;28;87411;-85
2022/10/21 08:26:37;;;;;;;7.90;3.58;;;20.70;69.40;;;;;;4979755;28;86142;-87
2022/10/21 08:29:03;;;;;;;10.23;3.88;;;20.70;70.30;;;;;;4977164;28;86336;-89
2022/10/21 08:31:28;;;;;;;10.93;3.72;;;20.60;69.40;;;;;;4977157;27;86260;-90
2022/10/21 08:33:54;;;;;;;7.97;3.70;;;20.70;69.70;;;;;;4979148;28;86570;-88
2022/10/21 08:36:23;;;;;;;7.95;3.55;;;20.70;70.10;;;;;;4977479;27;87049;-87
2022/10/21 08:38:49;;;;;;;;;;;20.70;70.60;;;;;;4976249;28;86219;-82
2022/10/21 08:41:38;;;;;;;11.93;3.90;;;20.70;70.10;;;;;;4977858;28;85789;-88
2022/10/21 08:44:27;;;;;;;8.37;3.43;;;20.70;70.80;;;;;;4977081;27;87657;-86
2022/10/21 08:47:07;;;;;;;8.00;3.72;;;20.70;70.70;;;;;;4977194;27;86792;-85
2022/10/21 08:50:02;;;;;;;7.38;3.42;;;20.70;70.70;;;;;;4977452;28;86402;-85
2022/10/21 08:52:48;;;;;;;8.50;3.83;;;20.80;70.30;;;;;;4977670;28;85752;-86
2022/10/21 08:55:40;;;;;;;8.52;3.63;;;20.70;70.90;;;;;;4977560;28;87654;-86
2022/10/21 08:58:15;;;;;;;11.65;3.80;;;20.70;70.90;;;;;;4977265;28;91253;-86
2022/10/21 09:00:56;;;;;;;7.43;3.50;;;20.70;71.40;;;;;;5008723;27;87778;-87
2022/10/21 09:04:21;;;;;;;6.57;3.63;;;20.70;71.30;;;;;;4977679;28;85766;-86
2022/10/21 09:07:03;;;;;;;10.32;3.50;;;20.80;71.30;;;;;;4957998;28;97327;-85
2022/10/21 09:09:45;;;;;;;7.22;3.45;;;20.90;71.20;;;;;;4982928;28;87168;-87
2022/10/21 09:12:34;;;;;;;12.80;3.75;;;21.00;71.10;;;;;;4983086;28;86005;-87
2022/10/21 09:15:14;;;;;;;;;;;21.10;71.10;;;;;;4978246;28;86972;-87
2022/10/21 09:17:48;;;;;;;8.57;3.67;;;21.10;71.00;;;;;;4975916;28;86591;-86
2022/10/21 09:20:44;;;;;;;9.57;4.35;;;21.10;70.60;;;;;;4974504;28;86104;-87
2022/10/21 09:23:30;;;;;;;10.00;3.38;;;21.10;70.50;;;;;;4974341;28;86457;-87
2022/10/21 09:26:03;;;;;;;8.05;3.67;;;21.20;70.70;;;;;;4973970;28;85823;-86
2022/10/21 09:28:29;;;;;;;10.68;3.30;;;21.20;70.50;;;;;;4974398;28;87472;-88
2022/10/21 09:30:59;;;;;;;7.63;3.13;;;21.30;70.50;;;;;;4975333;28;86835;-89
2022/10/21 09:33:30;;;;;;;12.93;3.80;;;21.40;70.30;;;;;;4977762;28;86251;-87
2022/10/21 09:36:04;;;;;;;7.95;3.58;;;21.40;69.80;;;;;;4974810;28;86367;-88
2022/10/21 09:38:44;;;;;;;5.20;3.17;;;21.40;69.50;;;;;;4977059;28;86796;-89
2022/10/21 09:41:18;;;;;;;7.82;3.33;;;21.40;69.60;;;;;;4977264;28;86067;-87
2022/10/21 09:43:44;;;;;;;7.13;3.47;;;21.30;69.90;;;;;;4978140;28;85685;-88
2022/10/21 09:46:14;;;;;;;7.05;3.17;;;21.50;70.00;;;;;;4977878;28;85583;-86
2022/10/21 09:48:54;;;;;;;9.75;3.47;;;21.50;69.70;;;;;;4976889;28;88096;-88
2022/10/21 09:51:30;;;;;;;9.50;3.33;;;21.50;69.80;;;;;;4976266;28;86066;-85
2022/10/21 09:54:09;;;;;;;6.63;2.95;;;21.50;70.00;;;;;;4976683;28;86336;-85
2022/10/21 09:57:11;;;;;;;11.50;3.22;;;21.60;69.40;;;;;;4975035;28;85956;-83
2022/10/21 09:59:50;;;;;;;6.57;2.70;;;21.60;69.80;;;;;;4982997;28;87466;-84
2022/10/21 10:02:22;;;;;;;9.30;3.08;;;21.50;70.10;;;;;;4983215;28;87115;-84
2022/10/21 10:04:48;;;;;;;11.50;3.25;;;21.50;70.20;;;;;;4984205;28;86217;-84
2022/10/21 10:07:31;;;;;;;6.45;3.08;;;21.50;70.40;;;;;;4984221;28;86090;-84
2022/10/21 10:09:57;;;;;;;6.78;3.00;;;21.50;70.30;;;;;;4964383;28;91218;-84
2022/10/21 10:12:24;;;;;;;7.18;3.08;;;21.50;70.50;;;;;;4963727;28;86048;-84
2022/10/21 10:14:50;;;;;;;11.48;3.20;;;21.50;70.60;;;;;;4962657;28;85670;-86
2022/10/21 10:17:38;;;;;;;7.05;3.45;;;21.60;70.60;;;;;;4971854;28;85730;-85
2022/10/21 10:20:04;;;;;;;6.18;3.00;;;21.60;70.70;;;;;;4982776;28;87553;-84
2022/10/21 10:22:36;;;;;;;8.98;3.60;;;21.70;70.30;;;;;;4983852;28;86554;-86
2022/10/21 10:25:11;;;;;;;8.00;2.65;;;21.60;70.30;;;;;;4988108;28;85670;-85
2022/10/21 10:28:00;;;;;;;8.32;2.10;;;21.70;68.70;;;;;;4987204;28;86368;-85
2022/10/21 10:30:36;;;;;;;5.25;2.30;;;21.60;68.60;;;;;;4986736;28;86612;-85
2022/10/21 10:33:08;;;;;;;7.18;2.92;;;21.50;69.20;;;;;;4986372;28;86850;-84
2022/10/21 10:35:35;;;;;;;9.35;2.72;;;21.50;70.00;;;;;;4977485;28;86201;-85
2022/10/21 10:38:02;;;;;;;4.88;2.85;;;21.40;70.80;;;;;;4965584;28;86061;-85
2022/10/21 10:40:38;;;;;;;8.25;2.78;;;21.30;70.90;;;;;;4979119;27;89111;-85
2022/10/21 10:43:27;;;;;;;6.13;3.00;;;21.40;71.00;;;;;;4980084;28;87229;-86
2022/10/21 10:45:57;;;;;;;4.72;2.47;;;21.40;71.30;;;;;;4979878;28;87899;-87
2022/10/21 10:48:31;;;;;;;6.70;3.45;;;21.40;71.80;;;;;;4979683;28;86296;-85
2022/10/21 10:50:57;;;;;;;9.13;2.83;;;21.40;71.70;;;;;;4979583;28;87534;-86
2022/10/21 10:53:30;;;;;;;6.10;2.90;;;21.40;71.50;;;;;;4979171;27;86385;-86
2022/10/21 10:56:18;;;;;;;7.30;3.28;;;21.40;71.90;;;;;;4979003;27;86139;-86
2022/10/21 10:58:52;;;;;;;7.50;3.20;;;21.30;72.00;;;;;;4978762;27;86263;-86
2022/10/21 11:01:26;;;;;;;9.23;3.22;;;21.30;72.20;;;;;;4979787;28;86887;-85
2022/10/21 11:04:10;;;;;;;6.00;3.17;;;21.30;71.90;;;;;;4978944;28;91751;-85
2022/10/21 11:06:52;;;;;;;7.22;3.72;;;21.40;72.80;;;;;;4978398;28;86058;-86
2022/10/21 11:09:19;;;;;;;6.88;3.30;;;21.30;74.20;;;;;;4994209;27;86153;-86
2022/10/21 11:11:47;;;;;;;11.73;3.13;;;21.40;73.90;;;;;;4978909;27;87512;-85
2022/10/21 11:14:15;;;;;;;5.65;3.22;;;21.40;73.20;;;;;;4978566;28;86939;-86
2022/10/21 11:17:09;;;;;;;6.93;3.53;;;21.50;73.20;;;;;;4977733;27;86378;-86
2022/10/21 11:19:47;;;;;;;7.18;3.40;;;21.40;73.00;;;;;;4978476;28;86193;-86
2022/10/21 11:22:24;;;;;;;8.57;3.30;;;21.40;73.70;;;;;;4981561;28;86916;-86
2022/10/21 11:25:06;;;;;;;5.88;3.50;;;21.50;73.80;;;;;;4978016;28;90428;-87
2022/10/21 11:28:01;;;;;;;12.48;4.05;;;21.50;73.70;;;;;;4993450;27;86821;-87
2022/10/21 11:31:11;;;;;;;8.98;3.42;;;21.50;74.00;;;;;;4978068;28;86772;-86
2022/10/21 11:33:58;;;;;;;7.68;3.70;;;21.50;73.80;;;;;;4971202;28;90879;-86
2022/10/21 11:37:02;;;;;;;9.48;3.50;;;21.50;74.00;;;;;;4978461;27;86402;-87
2022/10/21 11:39:40;;;;;;;8.38;3.38;;;21.40;74.30;;;;;;4974651;28;85711;-87
2022/10/21 11:42:11;;;;;;;5.20;3.00;;;21.30;74.60;;;;;;4965934;28;85796;-88
2022/10/21 11:44:42;;;;;;;7.38;3.85;;;21.30;74.80;;;;;;4976008;28;86234;-87
2022/10/21 11:47:33;;;;;;;8.70;3.00;;;21.30;75.30;;;;;;4974739;28;86626;-86
2022/10/21 11:50:17;;;;;;;5.00;2.95;;;21.40;75.50;;;;;;4974229;28;86508;-86
2022/10/21 11:52:45;;;;;;;9.32;3.47;;;21.40;75.20;;;;;;4981956;28;85957;-85
2022/10/21 11:55:29;;;;;;;7.18;3.40;;;21.50;75.00;;;;;;4985320;28;87604;-87
2022/10/21 11:58:10;;;;;;;7.68;3.25;;;21.50;74.60;;;;;;4975100;28;87840;-88
2022/10/21 12:01:00;;;;;;;12.63;3.33;;;21.50;74.20;;;;;;4975508;28;85991;-87
2022/10/21 12:03:49;;;;;;;5.00;2.70;;;21.50;75.10;;;;;;4975106;28;86338;-88
2022/10/21 12:06:38;;;;;;;5.18;2.95;;;21.50;74.20;;;;;;4958922;28;90741;-87
2022/10/21 12:09:06;;;;;;;;;;;21.50;74.50;;;;;;4975180;28;86538;-87
2022/10/21 12:11:40;;;;;;;9.43;3.25;;;21.50;74.30;;;;;;4977376;28;85906;-87
2022/10/21 12:14:28;;;;;;;5.20;2.78;;;21.50;74.20;;;;;;4975691;28;85688;-87
2022/10/21 12:16:57;;;;;;;7.90;3.30;;;21.50;74.50;;;;;;4975712;28;88683;-87
2022/10/21 12:19:24;;;;;;;17.57;4.40;;;21.50;74.60;;;;;;4978184;28;86325;-86
2022/10/21 12:21:51;;;;;;;14.30;3.50;;;21.40;74.60;;;;;;4978158;28;86015;-84
2022/10/21 12:24:37;;;;;;;9.20;3.70;;;21.40;74.90;;;;;;4978028;28;85904;-84
2022/10/21 12:27:16;;;;;;;11.68;3.47;;;21.50;74.80;;;;;;4978049;28;87735;-84
2022/10/21 12:29:51;;;;;;;;;;;21.40;75.80;;;;;;4978144;28;86607;-84
2022/10/21 12:32:42;;;;;;;16.92;4.68;;;21.40;75.10;;;;;;4980197;28;86347;-84
2022/10/21 12:35:40;;;;;;;14.98;4.65;;;21.30;74.80;;;;;;4977910;28;86513;-85
2022/10/21 12:38:18;;;;;;;15.52;4.55;;;21.30;75.10;;;;;;4978272;28;87277;-84
2022/10/21 12:40:43;;;;;;;13.77;4.45;;;21.30;75.00;;;;;;4978105;28;86622;-87
2022/10/21 12:43:25;;;;;;;12.82;4.00;;;21.30;75.20;;;;;;4977355;28;85929;-86
2022/10/21 12:46:08;;;;;;;18.83;5.28;;;21.30;75.30;;;;;;4977739;28;86274;-86
2022/10/21 12:48:42;;;;;;;14.80;4.93;;;21.30;75.20;;;;;;4977175;28;86335;-86
2022/10/21 12:51:18;;;;;;;22.27;5.45;;;21.30;75.20;;;;;;4977805;28;86887;-86
2022/10/21 12:53:51;;;;;;;11.40;4.10;;;21.30;75.20;;;;;;4977679;28;86266;-87
2022/10/21 12:56:34;;;;;;;12.00;4.30;;;21.30;75.10;;;;;;4977062;28;86462;-86
2022/10/21 12:59:03;;;;;;;15.75;5.30;;;21.30;75.20;;;;;;4977846;28;87685;-86
2022/10/21 13:01:33;;;;;;;13.43;4.68;;;21.30;74.90;;;;;;4977803;28;87414;-87
2022/10/21 13:03:59;;;;;;;11.35;4.78;;;21.30;74.90;;;;;;4977803;28;85886;-86
2022/10/21 13:07:08;;;;;;;22.05;6.20;;;21.40;74.70;;;;;;4975568;28;86497;-86
2022/10/21 13:09:41;;;;;;;11.43;3.85;;;21.40;74.80;;;;;;5013679;28;87456;-86